Time;durP1;ratioP1;P1;durP2;ratioP2;P2;SDS_P1;SDS_P2;PMS_P1;PMS_P2;Temp;Humidity;BMP_temperature;BMP_pressure;BME280_temperature;BME280_humidity;BME280_pressure;Samples;Min_cycle;Max_cycle;Signal;HPM_P1;HPM_P2
2022/06/12 00:00:34;;;;;;;14.55;3.15;;;16.00;99.90;;;;;;4895057;29;20059;-78
2022/06/12 00:03:03;;;;;;;14.90;3.08;;;16.10;99.90;;;;;;4893997;29;20396;-78
2022/06/12 00:05:33;;;;;;;11.18;2.80;;;16.00;99.90;;;;;;4909516;29;20063;-78
2022/06/12 00:07:58;;;;;;;14.23;2.90;;;16.00;99.90;;;;;;4889651;29;20158;-78
2022/06/12 00:10:24;;;;;;;12.85;3.17;;;16.00;99.90;;;;;;4894389;29;20126;-78
2022/06/12 00:12:50;;;;;;;12.57;3.45;;;16.00;99.90;;;;;;4893867;29;20055;-78
2022/06/12 00:15:21;;;;;;;14.35;2.92;;;16.00;99.90;;;;;;4893405;29;20147;-78
2022/06/12 00:17:47;;;;;;;12.07;3.00;;;15.90;99.90;;;;;;4909192;29;20396;-78
2022/06/12 00:20:15;;;;;;;14.07;3.20;;;15.90;99.90;;;;;;4909677;29;20111;-77
2022/06/12 00:22:42;;;;;;;17.08;3.65;;;15.90;99.90;;;;;;4899933;29;20044;-78
2022/06/12 00:25:09;;;;;;;10.38;3.20;;;15.90;99.90;;;;;;4896595;29;20255;-78
2022/06/12 00:27:36;;;;;;;11.85;3.38;;;15.90;99.90;;;;;;4892730;29;20052;-79
2022/06/12 00:30:04;;;;;;;9.75;2.80;;;15.90;99.90;;;;;;4908457;29;20048;-78
2022/06/12 00:32:30;;;;;;;13.52;3.83;;;15.90;99.90;;;;;;4924865;29;20423;-78
2022/06/12 00:34:57;;;;;;;15.05;3.30;;;15.90;99.90;;;;;;4905584;29;20044;-78
2022/06/12 00:37:25;;;;;;;16.52;3.40;;;15.90;99.90;;;;;;4890383;29;20055;-78
2022/06/12 00:39:53;;;;;;;12.90;3.45;;;15.90;99.90;;;;;;4908261;29;20052;-78
2022/06/12 00:42:24;;;;;;;11.65;2.65;;;15.90;99.90;;;;;;4907854;29;20060;-78
2022/06/12 00:44:53;;;;;;;17.05;3.78;;;15.90;99.90;;;;;;4908838;29;21088;-79
2022/06/12 00:47:19;;;;;;;17.15;3.58;;;15.90;99.90;;;;;;4909231;29;20060;-78
2022/06/12 00:49:57;;;;;;;14.52;3.33;;;15.90;99.90;;;;;;4923159;29;20078;-77
2022/06/12 00:52:42;;;;;;;16.38;3.80;;;15.90;99.90;;;;;;4892545;29;20048;-78
2022/06/12 00:55:16;;;;;;;17.83;3.97;;;15.90;99.90;;;;;;4892442;29;20051;-78
2022/06/12 00:57:42;;;;;;;17.63;4.03;;;15.90;99.90;;;;;;4909206;29;20071;-78
2022/06/12 01:00:13;;;;;;;9.70;3.30;;;15.90;99.90;;;;;;4908650;29;20503;-78
2022/06/12 01:02:39;;;;;;;19.35;3.70;;;15.90;99.90;;;;;;4907128;29;20488;-78
2022/06/12 01:07:57;;;;;;;14.80;3.78;;;15.90;99.90;;;;;;4909085;29;20869;-78
2022/06/12 01:10:28;;;;;;;16.10;3.85;;;15.90;99.90;;;;;;4924559;29;20106;-78
2022/06/12 01:13:09;;;;;;;20.02;4.05;;;15.90;99.90;;;;;;4891218;29;20048;-78
2022/06/12 01:15:41;;;;;;;17.92;4.07;;;15.90;99.90;;;;;;4904707;29;20047;-78
2022/06/12 01:18:10;;;;;;;15.10;3.97;;;15.90;99.90;;;;;;4908372;29;20052;-78
2022/06/12 01:20:49;;;;;;;18.15;4.00;;;15.90;99.90;;;;;;4892838;29;20094;-78
2022/06/12 01:23:26;;;;;;;20.17;4.72;;;15.90;99.90;;;;;;4906899;29;20056;-79
2022/06/12 01:26:30;;;;;;;22.00;4.95;;;15.90;99.90;;;;;;4908338;29;20056;-78
2022/06/12 01:29:01;;;;;;;15.85;3.85;;;15.80;99.90;;;;;;4922717;29;20843;-78
2022/06/12 01:31:37;;;;;;;18.73;3.97;;;15.80;99.90;;;;;;4892221;29;20476;-78
2022/06/12 01:34:41;;;;;;;19.20;4.03;;;15.80;99.90;;;;;;4907614;29;20076;-78
2022/06/12 01:37:36;;;;;;;15.40;4.28;;;15.80;99.90;;;;;;4892828;29;20195;-78
2022/06/12 01:40:21;;;;;;;18.60;3.92;;;15.80;99.90;;;;;;4891248;29;20067;-78
2022/06/12 01:42:59;;;;;;;22.00;5.15;;;15.80;99.90;;;;;;4906492;29;20151;-78
2022/06/12 01:45:43;;;;;;;21.50;4.07;;;15.80;99.90;;;;;;4891726;29;20051;-78
2022/06/12 01:48:39;;;;;;;20.88;4.60;;;15.80;99.90;;;;;;4907449;29;20488;-78
2022/06/12 01:51:21;;;;;;;20.08;4.28;;;15.80;99.90;;;;;;4892069;29;20701;-78
2022/06/12 01:54:27;;;;;;;23.15;5.05;;;15.80;99.90;;;;;;4922450;29;20072;-78
2022/06/12 01:57:01;;;;;;;16.63;4.88;;;15.80;99.90;;;;;;4904691;29;20066;-78
2022/06/12 01:59:58;;;;;;;15.18;4.53;;;15.80;99.90;;;;;;4892511;29;20142;-78
2022/06/12 02:02:45;;;;;;;;;;;15.80;99.90;;;;;;4876664;29;20135;-78
2022/06/12 02:05:23;;;;;;;;;;;15.80;99.90;;;;;;4924070;29;19933;-78
2022/06/12 02:07:59;;;;;;;25.52;4.68;;;15.80;99.90;;;;;;4907099;29;20271;-79
2022/06/12 02:10:30;;;;;;;21.27;4.47;;;15.80;99.90;;;;;;4908086;29;20056;-79
2022/06/12 02:13:25;;;;;;;15.07;4.07;;;15.80;99.90;;;;;;4890985;29;20151;-78
2022/06/12 02:15:57;;;;;;;22.30;4.20;;;15.80;99.90;;;;;;4891363;29;20697;-78
2022/06/12 02:18:26;;;;;;;25.60;4.70;;;15.80;99.90;;;;;;4907231;29;20154;-78
2022/06/12 02:20:58;;;;;;;16.50;4.95;;;15.80;99.90;;;;;;4922665;29;20120;-79
2022/06/12 02:23:41;;;;;;;21.50;4.20;;;15.80;99.90;;;;;;4906932;29;20059;-78
2022/06/12 02:26:13;;;;;;;17.48;4.40;;;15.80;99.90;;;;;;4906011;29;20083;-79
2022/06/12 02:28:52;;;;;;;20.88;5.03;;;15.80;99.90;;;;;;4906851;29;20051;-79
2022/06/12 02:31:25;;;;;;;18.15;4.88;;;15.80;99.90;;;;;;4885822;29;20052;-78
2022/06/12 02:33:58;;;;;;;19.92;4.57;;;15.80;99.90;;;;;;4921974;29;20059;-79
2022/06/12 02:36:39;;;;;;;20.33;5.47;;;15.80;99.90;;;;;;4887845;29;20051;-78
2022/06/12 02:39:12;;;;;;;20.77;4.53;;;15.70;99.90;;;;;;4907105;29;20052;-79
2022/06/12 02:41:44;;;;;;;23.63;4.88;;;15.70;99.90;;;;;;4906897;29;20059;-78
2022/06/12 02:44:15;;;;;;;20.75;4.63;;;15.70;99.90;;;;;;4907787;29;20123;-79
2022/06/12 02:47:06;;;;;;;25.02;5.25;;;15.70;99.90;;;;;;4889620;29;20076;-79
2022/06/12 02:49:34;;;;;;;19.33;4.13;;;15.70;99.90;;;;;;4907633;29;20055;-78
2022/06/12 02:52:30;;;;;;;22.58;4.57;;;15.70;99.90;;;;;;4922970;29;20058;-79
2022/06/12 02:55:24;;;;;;;19.40;4.78;;;15.70;99.90;;;;;;4906632;29;20071;-79
2022/06/12 02:57:50;;;;;;;15.43;4.20;;;15.70;99.90;;;;;;4891488;29;20064;-79
2022/06/12 03:00:33;;;;;;;19.70;4.97;;;15.60;99.90;;;;;;4907198;29;20052;-78
2022/06/12 03:03:24;;;;;;;21.92;4.82;;;15.60;99.90;;;;;;4906885;29;20071;-78
2022/06/12 03:05:52;;;;;;;25.05;4.53;;;15.60;99.90;;;;;;4891282;29;20048;-77
2022/06/12 03:08:35;;;;;;;21.92;4.68;;;15.60;99.90;;;;;;4892365;29;20052;-77
2022/06/12 03:11:33;;;;;;;24.63;5.55;;;15.60;99.90;;;;;;4890120;29;20522;-78
2022/06/12 03:13:59;;;;;;;19.63;4.70;;;15.60;99.90;;;;;;4906550;29;20048;-80
2022/06/12 03:16:31;;;;;;;19.95;4.82;;;15.60;99.90;;;;;;4907803;29;20507;-80
2022/06/12 03:19:05;;;;;;;22.20;4.50;;;15.60;99.90;;;;;;4890273;29;20095;-80
2022/06/12 03:21:46;;;;;;;24.95;5.53;;;15.60;99.90;;;;;;4890514;29;20850;-80
2022/06/12 03:24:15;;;;;;;17.63;4.60;;;15.60;99.90;;;;;;4906980;29;20056;-78
2022/06/12 03:26:59;;;;;;;21.88;4.82;;;15.60;99.90;;;;;;4907081;29;20404;-78
2022/06/12 03:29:47;;;;;;;20.85;4.95;;;15.60;99.90;;;;;;4890677;29;20044;-79
2022/06/12 03:32:29;;;;;;;20.50;4.53;;;15.60;99.90;;;;;;4906222;29;20060;-78
2022/06/12 03:35:25;;;;;;;22.45;5.25;;;15.60;99.90;;;;;;4906597;29;20392;-78
2022/06/12 03:37:57;;;;;;;17.27;4.43;;;15.70;99.90;;;;;;4901289;29;20056;-79
2022/06/12 03:40:40;;;;;;;21.83;4.95;;;15.70;99.90;;;;;;4924132;29;20052;-78
2022/06/12 03:43:09;;;;;;;18.92;4.70;;;15.70;99.90;;;;;;4912789;29;20056;-78
2022/06/12 03:46:00;;;;;;;28.33;4.90;;;15.70;99.90;;;;;;4912741;29;20079;-78
2022/06/12 03:48:50;;;;;;;19.00;4.80;;;15.80;99.90;;;;;;4904777;29;20153;-77
2022/06/12 03:51:31;;;;;;;17.98;4.28;;;15.80;99.90;;;;;;4909341;29;20052;-78
2022/06/12 03:54:09;;;;;;;18.83;4.60;;;15.80;99.90;;;;;;4909817;29;20055;-78
2022/06/12 03:59:48;;;;;;;23.98;4.80;;;15.70;99.90;;;;;;4910122;29;20052;-77
2022/06/12 04:02:20;;;;;;;17.25;4.32;;;15.70;99.90;;;;;;4908259;29;20052;-77
2022/06/12 04:04:47;;;;;;;24.25;4.80;;;15.70;99.90;;;;;;4909857;29;20079;-77
2022/06/12 04:07:16;;;;;;;21.20;4.50;;;15.70;99.90;;;;;;4908858;29;20456;-77
2022/06/12 04:09:47;;;;;;;21.60;4.57;;;15.70;99.90;;;;;;4905765;29;20991;-77
2022/06/12 04:12:21;;;;;;;18.95;4.30;;;15.70;99.90;;;;;;4891787;29;20055;-78
2022/06/12 04:15:03;;;;;;;22.55;4.78;;;15.70;99.90;;;;;;4894186;29;20547;-78
2022/06/12 04:17:29;;;;;;;18.17;4.95;;;15.70;99.90;;;;;;4909637;29;20059;-78
2022/06/12 04:20:04;;;;;;;21.27;4.90;;;15.80;99.90;;;;;;4892904;29;20055;-80
2022/06/12 04:22:53;;;;;;;22.05;5.43;;;15.80;99.90;;;;;;4909088;29;20044;-77
2022/06/12 04:25:28;;;;;;;17.75;4.47;;;15.80;99.90;;;;;;4895008;29;20115;-78
2022/06/12 04:27:54;;;;;;;21.08;4.70;;;15.80;99.90;;;;;;4910009;29;20086;-77
2022/06/12 04:30:31;;;;;;;22.15;5.47;;;15.80;99.90;;;;;;4909297;29;20068;-80
2022/06/12 04:33:23;;;;;;;19.42;4.78;;;15.80;99.90;;;;;;4909544;29;20067;-80
2022/06/12 04:35:56;;;;;;;17.88;4.25;;;15.80;99.90;;;;;;4894843;29;20055;-80
2022/06/12 04:38:24;;;;;;;21.63;4.22;;;15.90;99.90;;;;;;4909236;29;20060;-81
2022/06/12 04:40:50;;;;;;;18.73;4.55;;;15.90;99.90;;;;;;4908780;29;20051;-80
2022/06/12 04:43:16;;;;;;;26.85;4.90;;;16.00;99.90;;;;;;4906834;29;20058;-80
2022/06/12 04:45:44;;;;;;;14.18;4.03;;;16.00;99.90;;;;;;4909191;29;20395;-80
2022/06/12 04:48:15;;;;;;;22.50;5.40;;;16.10;99.90;;;;;;4893183;29;20083;-80
2022/06/12 04:50:42;;;;;;;21.25;4.63;;;16.10;99.90;;;;;;4909780;29;20549;-80
2022/06/12 04:53:08;;;;;;;17.52;4.00;;;16.20;99.90;;;;;;4908563;29;20055;-80
2022/06/12 04:55:34;;;;;;;17.00;4.25;;;16.20;99.90;;;;;;4909207;29;20400;-78
2022/06/12 04:58:00;;;;;;;17.20;4.57;;;16.20;99.90;;;;;;4908856;29;20047;-78
2022/06/12 05:00:27;;;;;;;24.33;5.00;;;16.20;99.90;;;;;;4909019;29;20047;-77
2022/06/12 05:02:53;;;;;;;19.08;4.28;;;16.30;99.90;;;;;;4893355;29;20056;-77
2022/06/12 05:05:19;;;;;;;20.58;4.82;;;16.30;99.90;;;;;;4908375;29;20522;-77
2022/06/12 05:07:44;;;;;;;20.70;4.30;;;16.20;99.90;;;;;;4877704;29;20056;-77
2022/06/12 05:10:14;;;;;;;24.70;5.07;;;16.30;99.90;;;;;;4918298;29;20048;-77
2022/06/12 05:12:39;;;;;;;14.23;4.15;;;16.40;99.90;;;;;;4891140;29;20487;-78
2022/06/12 05:15:12;;;;;;;14.20;3.88;;;16.40;99.90;;;;;;4892629;29;20048;-80
2022/06/12 05:17:40;;;;;;;21.35;4.38;;;16.40;99.90;;;;;;4908620;29;20059;-81
2022/06/12 05:20:07;;;;;;;14.35;4.20;;;16.50;99.90;;;;;;4907498;29;20095;-80
2022/06/12 05:22:33;;;;;;;20.70;4.15;;;16.40;99.90;;;;;;4904290;29;20044;-80
2022/06/12 05:24:58;;;;;;;17.98;4.10;;;16.40;99.90;;;;;;4892251;29;20051;-82
2022/06/12 05:27:25;;;;;;;19.33;4.10;;;16.40;99.90;;;;;;4876950;29;20071;-80
2022/06/12 05:29:52;;;;;;;13.65;3.92;;;16.40;99.90;;;;;;4908787;29;20048;-80
2022/06/12 05:32:22;;;;;;;14.70;3.80;;;16.50;99.90;;;;;;4892452;29;20259;-77
2022/06/12 05:34:48;;;;;;;15.50;4.10;;;16.60;99.90;;;;;;4926710;29;20122;-78
2022/06/12 05:37:14;;;;;;;14.40;3.67;;;16.70;99.90;;;;;;4910826;29;20092;-78
2022/06/12 05:39:41;;;;;;;13.85;3.42;;;16.70;99.90;;;;;;4909593;29;20135;-77
2022/06/12 05:42:07;;;;;;;15.98;4.30;;;16.70;99.90;;;;;;4893732;29;20059;-78
2022/06/12 05:44:33;;;;;;;9.40;2.83;;;16.80;99.90;;;;;;4907531;29;20056;-76
2022/06/12 05:46:59;;;;;;;16.38;3.90;;;16.80;99.90;;;;;;4893949;29;20747;-78
2022/06/12 05:49:26;;;;;;;13.30;3.10;;;16.80;99.90;;;;;;4877897;29;20067;-78
2022/06/12 05:51:51;;;;;;;11.90;3.15;;;16.90;99.90;;;;;;4889205;29;20102;-77
2022/06/12 05:54:17;;;;;;;11.85;3.83;;;16.90;99.90;;;;;;4893185;29;20654;-76
2022/06/12 05:56:43;;;;;;;12.05;3.20;;;17.00;99.90;;;;;;4910413;29;20051;-77
2022/06/12 05:59:09;;;;;;;9.70;2.55;;;17.00;99.90;;;;;;4890298;29;20649;-77
2022/06/12 06:01:36;;;;;;;8.82;2.42;;;17.10;99.90;;;;;;4894808;29;20099;-78
2022/06/12 06:04:02;;;;;;;10.88;2.72;;;17.10;99.90;;;;;;4910449;29;20110;-77
2022/06/12 06:06:32;;;;;;;8.52;2.50;;;17.20;99.90;;;;;;4909737;29;20512;-77
2022/06/12 06:08:59;;;;;;;10.85;2.60;;;17.30;99.90;;;;;;4905763;29;20055;-77
2022/06/12 06:11:24;;;;;;;11.27;2.88;;;17.30;99.90;;;;;;4910028;29;20067;-78
2022/06/12 06:13:50;;;;;;;8.32;2.75;;;17.40;99.90;;;;;;4872056;29;20060;-81
2022/06/12 06:16:16;;;;;;;7.40;2.38;;;17.50;99.90;;;;;;4894036;29;20092;-78
2022/06/12 06:18:42;;;;;;;8.70;2.72;;;17.60;99.90;;;;;;4877065;29;20059;-77
2022/06/12 06:21:11;;;;;;;10.80;3.00;;;17.60;99.90;;;;;;4875985;29;20056;-77
2022/06/12 06:23:38;;;;;;;8.85;2.58;;;17.60;99.90;;;;;;4906682;29;20052;-78
2022/06/12 06:26:04;;;;;;;8.75;2.38;;;17.60;99.90;;;;;;4876937;29;20055;-79
2022/06/12 06:28:30;;;;;;;8.40;2.50;;;17.60;99.90;;;;;;4892972;29;20222;-87
2022/06/12 06:30:56;;;;;;;6.07;2.22;;;17.70;99.90;;;;;;4907742;29;20074;-78
2022/06/12 06:33:22;;;;;;;9.50;2.10;;;17.80;99.90;;;;;;4888415;29;20055;-78
2022/06/12 06:35:49;;;;;;;8.65;2.28;;;17.80;99.90;;;;;;4864893;29;20115;-78
2022/06/12 06:38:15;;;;;;;5.85;2.03;;;17.90;99.90;;;;;;4879172;29;20052;-78
2022/06/12 06:40:41;;;;;;;7.25;2.13;;;17.90;99.90;;;;;;4910021;29;20059;-79
2022/06/12 06:43:08;;;;;;;5.60;2.25;;;18.00;99.90;;;;;;4891755;29;20068;-79
2022/06/12 06:48:19;;;;;;;5.70;1.88;;;18.10;99.90;;;;;;4921249;29;20052;-80
2022/06/12 06:50:44;;;;;;;6.03;2.08;;;18.20;99.90;;;;;;4908228;29;20052;-79
2022/06/12 06:53:11;;;;;;;7.47;2.10;;;18.40;99.90;;;;;;4890128;29;20056;-80
2022/06/12 06:55:41;;;;;;;7.63;2.30;;;18.50;99.90;;;;;;4892798;29;20044;-84
2022/06/12 06:58:16;;;;;;;5.55;2.10;;;18.50;99.90;;;;;;4896286;29;20048;-83
2022/06/12 07:00:44;;;;;;;6.37;2.07;;;18.50;99.90;;;;;;4914962;29;20045;-86
2022/06/12 07:03:10;;;;;;;8.10;2.13;;;18.50;99.90;;;;;;4911608;29;20060;-84
2022/06/12 07:05:37;;;;;;;6.30;1.90;;;18.50;99.90;;;;;;4886028;29;20071;-82
2022/06/12 07:08:03;;;;;;;6.70;2.47;;;18.50;99.90;;;;;;4894307;29;20079;-84
2022/06/12 07:10:32;;;;;;;8.60;2.33;;;18.60;99.90;;;;;;4893885;29;20056;-84
2022/06/12 07:12:59;;;;;;;6.63;2.00;;;18.60;99.90;;;;;;4892558;29;20060;-83
2022/06/12 07:15:27;;;;;;;7.00;2.00;;;18.60;99.90;;;;;;4882211;29;20048;-83
2022/06/12 07:17:58;;;;;;;6.43;2.28;;;18.70;99.90;;;;;;4878187;29;20040;-83
2022/06/12 07:20:28;;;;;;;7.07;2.25;;;18.70;99.90;;;;;;4914623;29;20063;-86
2022/06/12 07:22:54;;;;;;;5.85;2.10;;;18.80;99.90;;;;;;4909834;29;20056;-86
2022/06/12 07:25:20;;;;;;;6.38;1.90;;;18.80;99.90;;;;;;4894561;29;20124;-85
2022/06/12 07:27:47;;;;;;;5.38;2.00;;;19.00;99.90;;;;;;4893612;29;20056;-84
2022/06/12 07:30:15;;;;;;;8.95;2.67;;;18.70;99.90;;;;;;4910952;29;20048;-81
2022/06/12 07:32:41;;;;;;;7.30;2.60;;;19.10;99.90;;;;;;4910185;29;20075;-80
2022/06/12 07:35:08;;;;;;;5.75;2.00;;;19.00;99.90;;;;;;4905327;29;20052;-81
2022/06/12 07:37:36;;;;;;;8.25;2.00;;;19.00;99.90;;;;;;4909437;29;20052;-80
2022/06/12 07:40:06;;;;;;;4.85;1.92;;;19.10;99.90;;;;;;4910490;29;20167;-81
2022/06/12 07:42:32;;;;;;;8.40;2.22;;;19.20;99.90;;;;;;4893428;29;20146;-81
2022/06/12 07:44:57;;;;;;;5.88;2.10;;;19.30;99.90;;;;;;4911434;29;20138;-80
2022/06/12 07:47:24;;;;;;;6.10;1.67;;;19.30;99.90;;;;;;4865212;29;20044;-81
2022/06/12 07:49:50;;;;;;;4.85;2.10;;;19.30;99.90;;;;;;4884877;29;20138;-83
2022/06/12 07:52:17;;;;;;;7.22;2.03;;;19.40;99.90;;;;;;4899989;29;20059;-84
2022/06/12 07:54:46;;;;;;;4.93;1.95;;;19.70;99.90;;;;;;4884985;29;20051;-88
2022/06/12 07:57:12;;;;;;;6.80;2.00;;;19.80;99.90;;;;;;4902556;29;20052;-82
2022/06/12 07:59:38;;;;;;;7.80;2.17;;;19.70;99.90;;;;;;4893965;29;20056;-82
2022/06/12 08:02:04;;;;;;;6.32;2.00;;;19.70;99.90;;;;;;4891418;29;20048;-83
2022/06/12 08:04:30;;;;;;;5.53;2.10;;;19.70;99.90;;;;;;4881543;29;20614;-83
2022/06/12 08:06:56;;;;;;;6.88;2.42;;;19.70;99.90;;;;;;4911434;29;20520;-83
2022/06/12 08:09:22;;;;;;;9.05;2.70;;;19.80;99.90;;;;;;4881057;29;20048;-83
2022/06/12 08:11:50;;;;;;;4.68;1.85;;;19.90;99.90;;;;;;4914108;29;20055;-82
2022/06/12 08:14:17;;;;;;;6.50;2.10;;;20.10;99.90;;;;;;4897577;29;20099;-83
2022/06/12 08:16:43;;;;;;;7.07;2.42;;;20.30;99.90;;;;;;4897256;29;20059;-83
2022/06/12 08:21:55;;;;;;;8.13;2.85;;;20.20;99.90;;;;;;4896582;29;20052;-82
2022/06/12 08:24:20;;;;;;;6.70;2.15;;;20.20;99.90;;;;;;4912998;29;20132;-84
2022/06/12 08:26:46;;;;;;;4.75;2.00;;;20.30;99.90;;;;;;4894768;29;20131;-82
2022/06/12 08:29:12;;;;;;;7.40;2.22;;;20.30;99.90;;;;;;4897801;29;20095;-83
2022/06/12 08:31:45;;;;;;;7.57;2.65;;;20.40;99.90;;;;;;4883039;29;20052;-82
2022/06/12 08:34:22;;;;;;;8.50;2.53;;;20.40;99.90;;;;;;4928898;29;20048;-83
2022/06/12 08:37:00;;;;;;;10.60;2.42;;;20.40;99.90;;;;;;4909023;29;20055;-84
2022/06/12 08:39:27;;;;;;;10.05;2.92;;;20.60;99.90;;;;;;4897208;29;20083;-83
2022/06/12 08:42:07;;;;;;;7.47;2.17;;;20.70;99.90;;;;;;4913503;29;20050;-84
2022/06/12 08:44:53;;;;;;;8.50;2.25;;;20.60;99.90;;;;;;4911612;29;21335;-83
2022/06/12 08:47:37;;;;;;;7.68;2.17;;;20.50;99.90;;;;;;4923974;29;20416;-83
2022/06/12 08:50:28;;;;;;;7.40;2.38;;;20.50;99.90;;;;;;4896655;29;20051;-82
2022/06/12 08:53:23;;;;;;;16.17;3.67;;;20.70;99.90;;;;;;4911053;29;20043;-83
2022/06/12 08:56:10;;;;;;;8.95;2.83;;;20.90;99.90;;;;;;4897092;29;20052;-83
2022/06/12 08:58:58;;;;;;;6.22;2.13;;;21.20;99.90;;;;;;4913045;29;20062;-83
2022/06/12 09:01:24;;;;;;;8.82;2.65;;;21.50;99.90;;;;;;4895492;29;20575;-83
2022/06/12 09:03:53;;;;;;;6.95;2.17;;;21.50;99.90;;;;;;4914603;29;20048;-82
2022/06/12 09:06:56;;;;;;;7.70;2.60;;;21.70;99.90;;;;;;4897037;29;20052;-83
2022/06/12 09:09:31;;;;;;;7.43;2.45;;;21.90;99.90;;;;;;4913998;29;20329;-83
2022/06/12 09:12:10;;;;;;;10.50;2.38;;;22.10;99.90;;;;;;4897901;29;20037;-83
2022/06/12 09:14:53;;;;;;;8.65;3.05;;;22.00;99.90;;;;;;4912750;29;20071;-83
2022/06/12 09:17:55;;;;;;;9.07;2.28;;;21.80;99.90;;;;;;4896713;29;20130;-82
2022/06/12 09:20:49;;;;;;;9.82;2.78;;;21.70;99.90;;;;;;4895480;29;20052;-83
2022/06/12 09:23:42;;;;;;;7.00;2.13;;;21.50;99.90;;;;;;4914231;29;20071;-83
2022/06/12 09:26:35;;;;;;;7.50;2.05;;;21.70;99.90;;;;;;4886103;29;20076;-84
2022/06/12 09:29:21;;;;;;;11.30;2.50;;;21.70;99.90;;;;;;4896841;29;20056;-84
2022/06/12 09:32:09;;;;;;;7.30;2.58;;;21.70;99.90;;;;;;4905198;29;20052;-83
2022/06/12 09:34:57;;;;;;;8.88;2.50;;;21.70;99.90;;;;;;4897826;29;20589;-84
2022/06/12 09:40:45;;;;;;;7.30;2.55;;;21.70;99.90;;;;;;4912580;29;20107;-84
2022/06/12 09:43:16;;;;;;;7.97;2.45;;;21.90;99.90;;;;;;4896991;29;20056;-83
2022/06/12 09:46:31;;;;;;;6.72;2.72;;;21.90;99.90;;;;;;4896074;29;20095;-84
2022/06/12 09:49:34;;;;;;;7.40;2.40;;;21.80;99.90;;;;;;4893919;29;20069;-82
2022/06/12 09:52:29;;;;;;;7.03;2.83;;;21.70;99.90;;;;;;4910873;29;20110;-83
2022/06/12 09:55:06;;;;;;;6.88;2.38;;;21.50;99.90;;;;;;4912318;29;20119;-83
2022/06/12 09:57:59;;;;;;;8.15;2.53;;;21.50;99.90;;;;;;4897958;29;20052;-84
2022/06/12 10:00:37;;;;;;;7.32;2.65;;;21.60;99.90;;;;;;4902858;29;20091;-83
2022/06/12 10:03:13;;;;;;;6.70;2.28;;;21.70;99.90;;;;;;4899161;29;20072;-84
2022/06/12 10:05:43;;;;;;;8.95;2.65;;;21.60;99.90;;;;;;4895270;29;20049;-84
2022/06/12 10:09:06;;;;;;;8.85;2.88;;;21.70;99.90;;;;;;4912732;29;20056;-83
2022/06/12 10:11:34;;;;;;;7.03;2.67;;;21.90;99.90;;;;;;4859162;29;20052;-85
2022/06/12 10:14:18;;;;;;;9.25;3.00;;;22.00;99.90;;;;;;4890945;29;20049;-83
2022/06/12 10:17:11;;;;;;;7.47;2.90;;;22.10;99.90;;;;;;4887266;29;20527;-84
2022/06/12 10:19:58;;;;;;;6.88;2.45;;;22.10;99.90;;;;;;4896905;29;20091;-84
2022/06/12 10:22:34;;;;;;;10.65;3.55;;;22.20;99.90;;;;;;4897815;29;20571;-83
2022/06/12 10:25:01;;;;;;;7.43;2.40;;;22.20;99.90;;;;;;4906399;29;20448;-83
2022/06/12 10:27:44;;;;;;;9.95;3.00;;;22.00;99.90;;;;;;4884144;29;20059;-84
2022/06/12 10:30:29;;;;;;;7.90;2.40;;;21.90;99.90;;;;;;4897505;29;20062;-83
2022/06/12 10:32:57;;;;;;;9.23;2.43;;;21.90;99.90;;;;;;4896259;29;20063;-82
2022/06/12 10:35:25;;;;;;;8.63;2.67;;;21.90;99.90;;;;;;4910938;29;20109;-82
2022/06/12 10:37:51;;;;;;;8.25;2.58;;;21.90;99.90;;;;;;4911658;29;20487;-83
2022/06/12 10:40:24;;;;;;;6.28;2.80;;;22.00;99.90;;;;;;4894526;29;20503;-84
2022/06/12 10:42:51;;;;;;;7.35;2.00;;;22.10;99.90;;;;;;4912647;29;20064;-83
2022/06/12 10:45:37;;;;;;;10.07;3.35;;;22.10;99.90;;;;;;4896914;29;20067;-84
2022/06/12 10:48:23;;;;;;;7.15;2.35;;;22.20;99.90;;;;;;4896173;29;20087;-83
2022/06/12 10:50:56;;;;;;;7.63;2.80;;;22.20;99.90;;;;;;4912332;29;20044;-84
2022/06/12 10:53:25;;;;;;;8.73;2.90;;;22.40;99.90;;;;;;4911488;29;20376;-83
2022/06/12 10:56:08;;;;;;;6.72;2.28;;;22.50;99.90;;;;;;4912929;29;20055;-83
2022/06/12 10:58:42;;;;;;;7.50;2.45;;;22.60;99.90;;;;;;4911111;29;20091;-83
2022/06/12 11:01:29;;;;;;;7.88;2.65;;;22.80;99.90;;;;;;4899939;29;20130;-83
2022/06/12 11:04:26;;;;;;;12.02;2.92;;;22.90;99.90;;;;;;4900996;29;20385;-83
2022/06/12 11:07:07;;;;;;;8.27;2.88;;;22.80;99.90;;;;;;4915892;29;20048;-84
2022/06/12 11:09:45;;;;;;;7.32;2.30;;;22.80;99.90;;;;;;4900062;29;20192;-83
2022/06/12 11:12:27;;;;;;;8.35;2.63;;;22.90;99.90;;;;;;4895206;29;20060;-83
2022/06/12 11:15:19;;;;;;;6.43;2.42;;;23.10;99.90;;;;;;4898642;29;20084;-81
2022/06/12 11:18:14;;;;;;;6.35;2.45;;;23.20;99.90;;;;;;4915681;29;20554;-83
2022/06/12 11:20:49;;;;;;;9.20;3.25;;;23.40;99.90;;;;;;4899251;29;20127;-83
2022/06/12 11:23:30;;;;;;;7.70;2.63;;;23.40;99.90;;;;;;4897336;29;20066;-84
2022/06/12 11:25:59;;;;;;;9.70;2.90;;;23.30;99.90;;;;;;4916019;29;20060;-87
2022/06/12 11:28:37;;;;;;;7.78;2.58;;;23.10;99.90;;;;;;4914691;29;20059;-85
2022/06/12 11:31:21;;;;;;;5.32;2.47;;;22.90;99.90;;;;;;4911734;29;20051;-86
2022/06/12 11:34:06;;;;;;;8.48;2.83;;;22.90;99.90;;;;;;4897595;29;20052;-85
2022/06/12 11:36:47;;;;;;;8.27;3.15;;;23.10;99.90;;;;;;4898329;29;20052;-85
2022/06/12 11:39:27;;;;;;;8.85;2.35;;;22.90;99.90;;;;;;4922201;29;20404;-88
2022/06/12 11:42:28;;;;;;;10.30;3.00;;;23.10;99.90;;;;;;4935330;29;20086;-89
2022/06/12 11:45:11;;;;;;;6.50;2.72;;;23.10;99.90;;;;;;4895427;29;20083;-82
2022/06/12 11:48:06;;;;;;;5.78;2.20;;;23.00;99.90;;;;;;4897140;29;20052;-83
2022/06/12 11:50:32;;;;;;;7.55;2.75;;;23.20;99.90;;;;;;4889926;29;20052;-83
2022/06/12 11:53:03;;;;;;;6.88;2.72;;;23.00;99.90;;;;;;4898069;29;20867;-83
2022/06/12 11:55:41;;;;;;;8.57;2.55;;;23.00;99.90;;;;;;4895890;29;20499;-87
2022/06/12 11:58:40;;;;;;;6.22;2.58;;;23.00;99.90;;;;;;4912709;29;20052;-88
2022/06/12 12:01:42;;;;;;;8.98;2.85;;;22.80;99.90;;;;;;4895482;29;20060;-82
2022/06/12 12:04:17;;;;;;;10.63;3.45;;;22.70;99.90;;;;;;4893561;29;20508;-80
2022/06/12 12:07:06;;;;;;;7.35;3.13;;;22.50;99.90;;;;;;4895120;29;20143;-80
2022/06/12 12:09:53;;;;;;;6.90;2.63;;;22.40;99.90;;;;;;4912321;29;20084;-80
2022/06/12 12:12:25;;;;;;;7.13;2.67;;;22.60;99.90;;;;;;4912487;29;20115;-79
2022/06/12 12:14:53;;;;;;;7.20;2.45;;;22.50;99.90;;;;;;4896049;29;20048;-79
2022/06/12 12:17:34;;;;;;;5.63;2.28;;;22.40;99.90;;;;;;4896288;29;20084;-79
2022/06/12 12:20:22;;;;;;;6.07;2.40;;;22.50;99.90;;;;;;4912473;29;20051;-79
2022/06/12 12:22:53;;;;;;;7.65;2.38;;;22.60;99.90;;;;;;4910885;29;20566;-79
2022/06/12 12:25:36;;;;;;;8.52;2.70;;;22.70;99.90;;;;;;4896625;29;20043;-80
2022/06/12 12:28:31;;;;;;;6.93;2.38;;;22.70;99.90;;;;;;4912115;29;20050;-80
2022/06/12 12:31:10;;;;;;;8.27;3.00;;;22.80;99.90;;;;;;4909199;29;20056;-79
2022/06/12 12:33:39;;;;;;;6.85;2.22;;;22.90;99.90;;;;;;4927181;29;20056;-79
2022/06/12 12:41:45;;;;;;;7.85;2.53;;;22.80;99.90;;;;;;4910325;29;20048;-80
2022/06/12 12:44:14;;;;;;;5.78;2.50;;;22.80;99.90;;;;;;4911643;29;20072;-78
2022/06/12 12:46:51;;;;;;;6.50;2.20;;;22.80;99.90;;;;;;4911912;29;20068;-78
2022/06/12 12:49:21;;;;;;;8.88;2.30;;;22.90;99.90;;;;;;4911853;29;20067;-78
2022/06/12 12:51:47;;;;;;;6.88;2.22;;;23.00;99.90;;;;;;4895337;29;20044;-78
2022/06/12 12:54:20;;;;;;;6.65;2.40;;;23.00;99.90;;;;;;4912053;29;20420;-79
2022/06/12 12:57:01;;;;;;;9.05;2.85;;;23.20;99.90;;;;;;4897931;29;20519;-78
2022/06/12 12:59:50;;;;;;;9.15;3.33;;;23.20;99.90;;;;;;4895832;29;20059;-79
2022/06/12 13:02:46;;;;;;;5.75;2.50;;;23.10;99.90;;;;;;4911691;29;20511;-78
2022/06/12 13:05:19;;;;;;;9.05;3.13;;;22.90;99.90;;;;;;4913002;29;20048;-78
2022/06/12 13:07:44;;;;;;;7.25;3.03;;;22.70;99.90;;;;;;4896588;29;20063;-78
2022/06/12 13:10:25;;;;;;;7.32;2.95;;;22.40;99.90;;;;;;4896985;29;20403;-78
2022/06/12 13:13:21;;;;;;;8.77;2.85;;;22.20;99.90;;;;;;4895479;29;20056;-78
2022/06/12 13:15:52;;;;;;;8.48;2.95;;;22.20;99.90;;;;;;4893781;29;20051;-79
2022/06/12 13:18:40;;;;;;;8.25;2.67;;;22.40;99.90;;;;;;4895280;29;20495;-79
2022/06/12 13:21:13;;;;;;;10.70;3.38;;;22.50;99.90;;;;;;4894536;29;20058;-79
2022/06/12 13:24:17;;;;;;;8.18;2.45;;;22.00;99.90;;;;;;4893666;29;20054;-79
2022/06/12 13:26:43;;;;;;;6.68;2.40;;;21.90;99.90;;;;;;4911275;29;20060;-79
2022/06/12 13:29:19;;;;;;;8.77;2.90;;;21.80;99.90;;;;;;4910319;29;20040;-78
2022/06/12 13:32:23;;;;;;;9.38;2.90;;;21.50;99.90;;;;;;4910069;29;20538;-79
2022/06/12 13:35:05;;;;;;;6.75;2.25;;;21.10;99.90;;;;;;4892014;29;20102;-79
2022/06/12 13:37:35;;;;;;;6.85;2.80;;;21.20;99.90;;;;;;4894137;29;20056;-80
2022/06/12 13:40:17;;;;;;;9.85;3.20;;;21.10;99.90;;;;;;4895543;29;20164;-80
2022/06/12 13:42:43;;;;;;;8.77;3.10;;;21.10;99.90;;;;;;4909415;29;20059;-80
2022/06/12 13:45:20;;;;;;;7.35;2.83;;;21.30;99.90;;;;;;4895064;29;20048;-80